createdAt,value
2019-01-17T00:00:36.804Z,18.09
2019-01-17T00:01:36.773Z,18.09
2019-01-17T00:02:36.825Z,18.09
2019-01-17T00:03:36.747Z,18.09
2019-01-17T00:04:36.760Z,18.08
2019-01-17T00:05:36.908Z,18.08
2019-01-17T00:06:37.032Z,18.08
2019-01-17T00:07:36.835Z,18.08
2019-01-17T00:08:36.924Z,18.09
2019-01-17T00:09:36.675Z,18.08
2019-01-17T00:10:36.822Z,18.07
2019-01-17T00:11:36.742Z,18.05
2019-01-17T00:12:36.717Z,18.05
2019-01-17T00:13:36.714Z,18.05
2019-01-17T00:14:36.991Z,18.04
2019-01-17T00:15:36.805Z,18.07
2019-01-17T00:16:36.924Z,18.02
2019-01-17T00:17:36.655Z,18.02
2019-01-17T00:18:36.708Z,18.04
2019-01-17T00:19:36.622Z,18.01
2019-01-17T00:20:38.728Z,18.01
2019-01-17T00:21:36.883Z,18.02
2019-01-17T00:22:36.775Z,18.01
2019-01-17T00:23:37.796Z,18.01
2019-01-17T00:24:37.072Z,18.02
2019-01-17T00:25:37.057Z,18
2019-01-17T00:26:37.720Z,17.98
2019-01-17T00:27:37.078Z,17.98
2019-01-17T00:28:37.045Z,18
2019-01-17T00:29:36.726Z,18
2019-01-17T00:30:36.858Z,17.98
2019-01-17T00:31:37.050Z,17.97
2019-01-17T00:32:36.791Z,18
2019-01-17T00:33:37.025Z,17.95
2019-01-17T00:34:37.234Z,17.98
2019-01-17T00:35:36.770Z,18
2019-01-17T00:36:36.972Z,17.97
2019-01-17T00:37:36.968Z,17.98
2019-01-17T00:38:36.798Z,17.94
2019-01-17T00:39:36.855Z,17.97
2019-01-17T00:40:37.221Z,17.98
2019-01-17T00:41:37.025Z,17.98
2019-01-17T00:42:36.779Z,18
2019-01-17T00:43:37.583Z,17.97
2019-01-17T00:44:37.011Z,17.95
2019-01-17T00:45:37.151Z,17.95
2019-01-17T00:46:36.908Z,17.94
2019-01-17T00:47:36.779Z,17.95
2019-01-17T00:48:36.737Z,17.95
2019-01-17T00:49:38.508Z,17.95
2019-01-17T00:50:36.932Z,17.94
2019-01-17T00:51:36.874Z,17.93
2019-01-17T00:52:37.070Z,17.93
2019-01-17T00:53:36.545Z,17.94
2019-01-17T00:54:36.640Z,17.93
2019-01-17T00:55:37.485Z,17.93
2019-01-17T00:56:36.693Z,17.95
2019-01-17T00:57:37.114Z,17.93
2019-01-17T00:58:36.899Z,17.94
2019-01-17T00:59:37.802Z,17.91
2019-01-17T01:00:36.901Z,17.91
2019-01-17T01:01:36.888Z,17.91
2019-01-17T01:02:36.731Z,17.93
2019-01-17T01:03:37.440Z,17.93
2019-01-17T01:04:36.841Z,17.91
2019-01-17T01:05:37.120Z,17.89
2019-01-17T01:06:37.256Z,17.89
2019-01-17T01:07:36.622Z,17.89
2019-01-17T01:08:36.750Z,17.88
2019-01-17T01:09:38.428Z,17.88
2019-01-17T01:10:36.612Z,17.88
2019-01-17T01:11:36.728Z,17.89
2019-01-17T01:12:36.754Z,17.89
2019-01-17T01:13:36.683Z,17.89
2019-01-17T01:14:36.795Z,17.88
2019-01-17T01:15:37.085Z,17.87
2019-01-17T01:16:36.624Z,17.85
2019-01-17T01:17:36.736Z,17.84
2019-01-17T01:18:37.473Z,17.88
2019-01-17T01:19:37.070Z,17.87
2019-01-17T01:20:37.330Z,17.88
2019-01-17T01:21:36.499Z,17.87
2019-01-17T01:22:37.205Z,17.87
2019-01-17T01:23:37.050Z,17.85
2019-01-17T01:24:36.770Z,17.87
2019-01-17T01:25:37.043Z,17.87
2019-01-17T01:26:36.767Z,17.87
2019-01-17T01:27:38.466Z,17.87
2019-01-17T01:28:37.255Z,17.84
2019-01-17T01:29:37.110Z,17.85
2019-01-17T01:30:36.474Z,17.88
2019-01-17T01:31:36.928Z,17.85
2019-01-17T01:32:36.815Z,17.87
2019-01-17T01:33:36.980Z,17.85
2019-01-17T01:34:36.707Z,17.84
2019-01-17T01:35:36.935Z,17.82
2019-01-17T01:36:36.509Z,17.8
2019-01-17T01:37:36.836Z,17.85
2019-01-17T01:38:36.713Z,17.82
2019-01-17T01:39:36.865Z,17.84
2019-01-17T01:40:36.729Z,17.82
2019-01-17T01:41:36.830Z,17.82
2019-01-17T01:42:36.796Z,17.82
2019-01-17T01:43:36.730Z,17.81
2019-01-17T01:44:36.706Z,17.78
2019-01-17T01:45:36.564Z,17.8
2019-01-17T01:46:36.973Z,17.82
2019-01-17T01:47:36.878Z,17.81
2019-01-17T01:48:36.868Z,17.81
2019-01-17T01:49:36.545Z,17.81
2019-01-17T01:50:36.806Z,17.8
2019-01-17T01:51:36.699Z,17.78
2019-01-17T01:52:36.762Z,17.78
2019-01-17T01:53:36.528Z,17.78
2019-01-17T01:54:36.738Z,17.8
2019-01-17T01:55:36.888Z,17.78
2019-01-17T01:56:36.799Z,17.8
2019-01-17T01:57:36.758Z,17.78
2019-01-17T01:58:36.796Z,17.8
2019-01-17T01:59:37.356Z,17.78
2019-01-17T02:00:37.404Z,17.78
2019-01-17T02:01:36.888Z,17.78
2019-01-17T02:02:36.816Z,17.78
2019-01-17T02:03:37.068Z,17.77
2019-01-17T02:04:36.727Z,17.76
2019-01-17T02:05:36.618Z,17.76
2019-01-17T02:06:37.256Z,17.76
2019-01-17T02:07:36.973Z,17.77
2019-01-17T02:08:37.005Z,17.77
2019-01-17T02:09:37.001Z,17.77
2019-01-17T02:10:37.078Z,17.77
2019-01-17T02:11:37.046Z,17.74
2019-01-17T02:12:36.770Z,17.77
2019-01-17T02:13:36.860Z,17.74
2019-01-17T02:14:37.332Z,17.76
2019-01-17T02:15:36.905Z,17.74
2019-01-17T02:16:36.907Z,17.74
2019-01-17T02:17:36.927Z,17.73
2019-01-17T02:18:36.867Z,17.74
2019-01-17T02:19:36.783Z,17.73
2019-01-17T02:20:36.730Z,17.76
2019-01-17T02:21:36.846Z,17.74
2019-01-17T02:22:36.897Z,17.76
2019-01-17T02:23:36.884Z,17.71
2019-01-17T02:24:36.562Z,17.71
2019-01-17T02:25:36.711Z,17.71
2019-01-17T02:26:37.578Z,17.73
2019-01-17T02:27:37.180Z,17.7
2019-01-17T02:28:37.078Z,17.73
2019-01-17T02:29:37.432Z,17.73
2019-01-17T02:30:36.918Z,17.73
2019-01-17T02:31:37.013Z,17.68
2019-01-17T02:32:36.871Z,17.7
2019-01-17T02:33:36.799Z,17.71
2019-01-17T02:34:37.039Z,17.7
2019-01-17T02:35:36.986Z,17.68
2019-01-17T02:36:36.552Z,17.68
2019-01-17T02:37:36.755Z,17.71
2019-01-17T02:38:37.094Z,17.68
2019-01-17T02:39:37.071Z,17.68
2019-01-17T02:40:36.872Z,17.67
2019-01-17T02:41:36.985Z,17.67
2019-01-17T02:42:36.924Z,17.67
2019-01-17T02:43:36.766Z,17.68
2019-01-17T02:44:37.245Z,17.66
2019-01-17T02:45:36.952Z,17.7
2019-01-17T02:46:37.209Z,17.68
2019-01-17T02:47:38.515Z,17.68
2019-01-17T02:48:36.659Z,17.68
2019-01-17T02:49:37.142Z,17.67
2019-01-17T02:50:36.758Z,17.67
2019-01-17T02:51:38.672Z,17.67
2019-01-17T02:52:37.874Z,17.68
2019-01-17T02:53:36.701Z,17.66
2019-01-17T02:54:36.955Z,17.67
2019-01-17T02:55:36.779Z,17.67
2019-01-17T02:56:36.699Z,17.67
2019-01-17T02:57:37.085Z,17.66
2019-01-17T02:58:36.927Z,17.66
2019-01-17T02:59:36.836Z,17.64
2019-01-17T03:00:37.202Z,17.64
2019-01-17T03:01:37.087Z,17.64
2019-01-17T03:02:37.068Z,17.64
2019-01-17T03:03:36.891Z,17.66
2019-01-17T03:04:36.972Z,17.64
2019-01-17T03:05:37.007Z,17.64
2019-01-17T03:06:36.810Z,17.64
2019-01-17T03:07:37.049Z,17.66
2019-01-17T03:08:36.620Z,17.64
2019-01-17T03:09:38.696Z,17.64
2019-01-17T03:10:36.677Z,17.61
2019-01-17T03:11:38.702Z,17.64
2019-01-17T03:12:36.735Z,17.64
2019-01-17T03:13:38.497Z,17.61
2019-01-17T03:14:36.974Z,17.61
2019-01-17T03:15:38.434Z,17.63
2019-01-17T03:16:37.141Z,17.6
2019-01-17T03:17:36.738Z,17.63
2019-01-17T03:18:36.854Z,17.64
2019-01-17T03:19:36.650Z,17.61
2019-01-17T03:20:37.251Z,17.61
2019-01-17T03:21:37.335Z,17.61
2019-01-17T03:22:36.667Z,17.6
2019-01-17T03:23:36.832Z,17.59
2019-01-17T03:24:43.467Z,17.6
2019-01-17T03:25:36.868Z,17.59
2019-01-17T03:26:36.768Z,17.6
2019-01-17T03:27:36.515Z,17.61
2019-01-17T03:28:36.781Z,17.59
2019-01-17T03:29:36.731Z,17.61
2019-01-17T03:30:36.729Z,17.57
2019-01-17T03:31:36.923Z,17.6
2019-01-17T03:32:36.568Z,17.57
2019-01-17T03:33:36.721Z,17.57
2019-01-17T03:34:36.762Z,17.57
2019-01-17T03:35:36.788Z,17.57
2019-01-17T03:36:36.542Z,17.59
2019-01-17T03:37:36.685Z,17.57
2019-01-17T03:38:36.702Z,17.57
2019-01-17T03:39:36.716Z,17.57
2019-01-17T03:40:36.651Z,17.59
2019-01-17T03:41:36.992Z,17.56
2019-01-17T03:42:37.183Z,17.56
2019-01-17T03:43:36.752Z,17.57
2019-01-17T03:44:36.498Z,17.56
2019-01-17T03:45:36.957Z,17.59
2019-01-17T03:46:37.703Z,17.56
2019-01-17T03:47:36.814Z,17.53
2019-01-17T03:48:36.531Z,17.54
2019-01-17T03:49:37.012Z,17.54
2019-01-17T03:50:36.752Z,17.54
2019-01-17T03:51:36.813Z,17.54
2019-01-17T03:52:36.702Z,17.53
2019-01-17T03:53:36.701Z,17.54
2019-01-17T03:54:36.907Z,17.53
2019-01-17T03:55:36.490Z,17.54
2019-01-17T03:56:37.723Z,17.54
2019-01-17T03:57:37.092Z,17.53
2019-01-17T03:58:37.009Z,17.56
2019-01-17T03:59:37.061Z,17.54
2019-01-17T04:00:36.812Z,17.53
2019-01-17T04:01:38.128Z,17.5
2019-01-17T04:02:36.786Z,17.5
2019-01-17T04:03:37.117Z,17.52
2019-01-17T04:04:36.905Z,17.53
2019-01-17T04:05:37.183Z,17.52
2019-01-17T04:06:37.098Z,17.52
2019-01-17T04:07:36.862Z,17.52
2019-01-17T04:08:36.768Z,17.52
2019-01-17T04:09:36.499Z,17.5
2019-01-17T04:10:36.706Z,17.5
2019-01-17T04:11:37.023Z,17.52
2019-01-17T04:12:36.906Z,17.53
2019-01-17T04:13:36.856Z,17.5
2019-01-17T04:14:36.950Z,17.49
2019-01-17T04:15:36.611Z,17.5
2019-01-17T04:16:36.971Z,17.5
2019-01-17T04:17:37.121Z,17.49
2019-01-17T04:18:36.647Z,17.5
2019-01-17T04:19:36.962Z,17.49
2019-01-17T04:20:36.798Z,17.5
2019-01-17T04:21:37.318Z,17.49
2019-01-17T04:22:37.161Z,17.48
2019-01-17T04:23:37.506Z,17.49
2019-01-17T04:24:36.936Z,17.46
2019-01-17T04:25:36.836Z,17.45
2019-01-17T04:26:36.537Z,17.48
2019-01-17T04:27:37.095Z,17.49
2019-01-17T04:28:37.689Z,17.5
2019-01-17T04:29:36.909Z,17.49
2019-01-17T04:30:36.925Z,17.46
2019-01-17T04:31:36.608Z,17.48
2019-01-17T04:32:36.777Z,17.48
2019-01-17T04:33:36.929Z,17.49
2019-01-17T04:34:37.022Z,17.46
2019-01-17T04:35:36.828Z,17.48
2019-01-17T04:36:36.971Z,17.48
2019-01-17T04:37:36.690Z,17.45
2019-01-17T04:38:37.014Z,17.46
2019-01-17T04:39:36.744Z,17.49
2019-01-17T04:40:36.871Z,17.49
2019-01-17T04:41:36.944Z,17.43
2019-01-17T04:42:37.364Z,17.48
2019-01-17T04:43:36.977Z,17.48
2019-01-17T04:44:36.763Z,17.46
2019-01-17T04:45:36.926Z,17.48
2019-01-17T04:46:37.114Z,17.46
2019-01-17T04:47:36.553Z,17.45
2019-01-17T04:48:37.082Z,17.48
2019-01-17T04:49:36.532Z,17.48
2019-01-17T04:50:36.787Z,17.49
2019-01-17T04:51:36.909Z,17.52
2019-01-17T04:52:38.738Z,17.52
2019-01-17T04:53:36.757Z,17.54
2019-01-17T04:54:38.728Z,17.54
2019-01-17T04:55:36.572Z,17.54
2019-01-17T04:56:36.893Z,17.57
2019-01-17T04:57:37.085Z,17.57
2019-01-17T04:58:36.867Z,17.6
2019-01-17T04:59:37.764Z,17.63
2019-01-17T05:00:36.759Z,17.64
2019-01-17T05:01:36.661Z,17.67
2019-01-17T05:02:36.817Z,17.68
2019-01-17T05:03:36.463Z,17.7
2019-01-17T05:04:36.640Z,17.7
2019-01-17T05:05:37.075Z,17.71
2019-01-17T05:06:36.826Z,17.73
2019-01-17T05:07:36.897Z,17.74
2019-01-17T05:08:36.703Z,17.77
2019-01-17T05:09:36.748Z,17.77
2019-01-17T05:10:36.670Z,17.8
2019-01-17T05:11:36.657Z,17.81
2019-01-17T05:12:36.841Z,17.84
2019-01-17T05:13:36.818Z,17.85
2019-01-17T05:14:36.778Z,17.85
2019-01-17T05:15:36.480Z,17.87
2019-01-17T05:16:37.271Z,17.88
2019-01-17T05:17:37.009Z,17.88
2019-01-17T05:18:37.058Z,17.91
2019-01-17T05:19:36.802Z,17.95
2019-01-17T05:20:36.815Z,17.94
2019-01-17T05:21:36.617Z,17.95
2019-01-17T05:22:36.863Z,17.97
2019-01-17T05:23:36.772Z,18
2019-01-17T05:24:36.987Z,18
2019-01-17T05:25:37.895Z,18.02
2019-01-17T05:26:36.789Z,18.04
2019-01-17T05:27:36.692Z,18.07
2019-01-17T05:28:36.707Z,18.05
2019-01-17T05:29:36.798Z,18.07
2019-01-17T05:30:37.714Z,18.08
2019-01-17T05:31:37.954Z,18.09
2019-01-17T05:32:37.041Z,18.09
2019-01-17T05:33:36.863Z,18.11
2019-01-17T05:34:40.129Z,18.13
2019-01-17T05:35:36.553Z,18.15
2019-01-17T05:36:37.219Z,18.18
2019-01-17T05:37:36.982Z,18.19
2019-01-17T05:38:36.854Z,18.19
2019-01-17T05:39:36.461Z,18.18
2019-01-17T05:40:36.733Z,18.22
2019-01-17T05:41:38.491Z,18.23
2019-01-17T05:42:38.475Z,18.25
2019-01-17T05:43:36.739Z,18.23
2019-01-17T05:44:36.821Z,18.25
2019-01-17T05:45:36.909Z,18.28
2019-01-17T05:46:36.704Z,18.29
2019-01-17T05:47:36.666Z,18.29
2019-01-17T05:48:37.124Z,18.3
2019-01-17T05:49:36.420Z,18.32
2019-01-17T05:50:36.945Z,18.32
2019-01-17T05:51:36.960Z,18.3
2019-01-17T05:52:36.893Z,18.26
2019-01-17T05:53:36.868Z,18.16
2019-01-17T05:54:36.777Z,18.12
2019-01-17T05:55:36.673Z,18.05
2019-01-17T05:56:36.710Z,18.01
2019-01-17T05:57:37.029Z,17.95
2019-01-17T05:58:36.463Z,17.89
2019-01-17T05:59:37.084Z,17.84
2019-01-17T06:00:36.942Z,17.82
2019-01-17T06:01:36.602Z,17.77
2019-01-17T06:02:36.871Z,17.68
2019-01-17T06:03:36.811Z,17.67
2019-01-17T06:04:37.091Z,17.64
2019-01-17T06:05:37.230Z,17.6
2019-01-17T06:06:36.996Z,17.56
2019-01-17T06:07:36.871Z,17.49
2019-01-17T06:08:37.051Z,17.46
2019-01-17T06:09:36.457Z,17.4
2019-01-17T06:10:36.664Z,17.39
2019-01-17T06:11:36.771Z,17.33
2019-01-17T06:12:36.705Z,17.32
2019-01-17T06:13:36.681Z,17.29
2019-01-17T06:14:36.900Z,17.25
2019-01-17T06:15:37.342Z,17.23
2019-01-17T06:16:37.290Z,17.21
2019-01-17T06:17:36.329Z,17.21
2019-01-17T06:18:36.764Z,17.16
2019-01-17T06:19:36.631Z,17.14
2019-01-17T06:20:36.743Z,17.09
2019-01-17T06:21:37.077Z,17.05
2019-01-17T06:22:36.928Z,17.06
2019-01-17T06:23:36.514Z,17.02
2019-01-17T06:24:36.800Z,17.04
2019-01-17T06:25:38.564Z,17.01
2019-01-17T06:26:37.074Z,17.01
2019-01-17T06:27:38.374Z,17.04
2019-01-17T06:28:36.571Z,17.05
2019-01-17T06:29:36.414Z,17.11
2019-01-17T06:30:37.518Z,17.15
2019-01-17T06:31:37.333Z,17.19
2019-01-17T06:32:36.807Z,17.23
2019-01-17T06:33:38.035Z,17.29
2019-01-17T06:34:36.892Z,17.32
2019-01-17T06:35:36.699Z,17.36
2019-01-17T06:36:37.139Z,17.39
2019-01-17T06:37:36.800Z,17.42
2019-01-17T06:38:36.749Z,17.45
2019-01-17T06:39:36.802Z,17.5
2019-01-17T06:40:37.045Z,17.54
2019-01-17T06:41:36.871Z,17.56
2019-01-17T06:42:36.660Z,17.59
2019-01-17T06:43:37.403Z,17.64
2019-01-17T06:44:36.526Z,17.67
2019-01-17T06:45:36.663Z,17.7
2019-01-17T06:46:36.815Z,17.73
2019-01-17T06:47:36.802Z,17.77
2019-01-17T06:48:37.126Z,17.78
2019-01-17T06:49:36.480Z,17.81
2019-01-17T06:50:36.771Z,17.84
2019-01-17T06:51:37.409Z,17.84
2019-01-17T06:52:36.892Z,17.87
2019-01-17T06:53:37.236Z,17.88
2019-01-17T06:54:36.878Z,17.93
2019-01-17T06:55:36.696Z,17.93
2019-01-17T06:56:36.984Z,17.97
2019-01-17T06:57:36.419Z,18
2019-01-17T06:58:36.496Z,18.02
2019-01-17T06:59:36.744Z,18.02
2019-01-17T07:00:36.707Z,18.05
2019-01-17T07:01:36.505Z,18.07
2019-01-17T07:02:36.902Z,18.09
2019-01-17T07:03:36.498Z,18.09
2019-01-17T07:04:36.882Z,18.12
2019-01-17T07:05:36.838Z,18.13
2019-01-17T07:06:36.823Z,18.15
2019-01-17T07:07:36.902Z,18.18
2019-01-17T07:08:36.722Z,18.19
2019-01-17T07:09:36.610Z,18.18
2019-01-17T07:10:36.890Z,18.21
2019-01-17T07:11:36.723Z,18.22
2019-01-17T07:12:38.392Z,18.23
2019-01-17T07:13:36.622Z,18.25
2019-01-17T07:14:36.392Z,18.25
2019-01-17T07:15:36.836Z,18.28
2019-01-17T07:16:38.474Z,18.3
2019-01-17T07:17:38.354Z,18.29
2019-01-17T07:18:36.961Z,18.29
2019-01-17T07:19:38.527Z,18.3
2019-01-17T07:20:36.527Z,18.32
2019-01-17T07:21:38.104Z,18.33
2019-01-17T07:22:37.298Z,18.36
2019-01-17T07:23:36.556Z,18.36
2019-01-17T07:24:37.500Z,18.36
2019-01-17T07:25:41.524Z,18.36
2019-01-17T07:26:36.525Z,18.39
2019-01-17T07:27:37.420Z,18.39
2019-01-17T07:28:36.913Z,18.4
2019-01-17T07:29:36.438Z,18.39
2019-01-17T07:30:36.848Z,18.4
2019-01-17T07:31:36.753Z,18.44
2019-01-17T07:32:36.871Z,18.41
2019-01-17T07:33:36.957Z,18.43
2019-01-17T07:34:36.858Z,18.44
2019-01-17T07:35:37.270Z,18.46
2019-01-17T07:36:36.993Z,18.47
2019-01-17T07:37:36.386Z,18.46
2019-01-17T07:38:36.786Z,18.47
2019-01-17T07:39:36.941Z,18.5
2019-01-17T07:40:36.566Z,18.46
2019-01-17T07:41:36.826Z,18.5
2019-01-17T07:42:36.710Z,18.51
2019-01-17T07:43:36.717Z,18.53
2019-01-17T07:44:37.228Z,18.51
2019-01-17T07:45:37.208Z,18.53
2019-01-17T07:46:36.780Z,18.51
2019-01-17T07:47:36.635Z,18.54
2019-01-17T07:48:36.915Z,18.54
2019-01-17T07:49:36.610Z,18.56
2019-01-17T07:50:36.902Z,18.57
2019-01-17T07:51:36.514Z,18.57
2019-01-17T07:52:36.828Z,18.58
2019-01-17T07:53:37.166Z,18.58
2019-01-17T07:54:36.838Z,18.62
2019-01-17T07:55:36.613Z,18.63
2019-01-17T07:56:36.948Z,18.62
2019-01-17T07:57:36.896Z,18.62
2019-01-17T07:58:36.629Z,18.64
2019-01-17T07:59:36.957Z,18.64
2019-01-17T08:00:36.410Z,18.64
2019-01-17T08:01:36.728Z,18.66
2019-01-17T08:02:38.542Z,18.67
2019-01-17T08:03:36.494Z,18.67
2019-01-17T08:04:36.922Z,18.66
2019-01-17T08:05:36.887Z,18.68
2019-01-17T08:06:37.084Z,18.7
2019-01-17T08:07:36.529Z,18.71
2019-01-17T08:08:36.529Z,18.71
2019-01-17T08:09:36.490Z,18.71
2019-01-17T08:10:36.657Z,18.73
2019-01-17T08:11:36.385Z,18.75
2019-01-17T08:12:36.972Z,18.74
2019-01-17T08:13:36.801Z,18.77
2019-01-17T08:14:36.565Z,18.77
2019-01-17T08:15:37.012Z,18.77
2019-01-17T08:16:36.818Z,18.77
2019-01-17T08:17:36.799Z,18.78
2019-01-17T08:18:36.891Z,18.8
2019-01-17T08:19:37.000Z,18.81
2019-01-17T08:20:36.714Z,18.81
2019-01-17T08:21:36.597Z,18.84
2019-01-17T08:22:36.999Z,18.84
2019-01-17T08:23:38.394Z,18.83
2019-01-17T08:24:37.039Z,18.84
2019-01-17T08:25:36.758Z,18.84
2019-01-17T08:26:36.735Z,18.85
2019-01-17T08:27:36.768Z,18.88
2019-01-17T08:28:36.528Z,18.84
2019-01-17T08:29:36.885Z,18.85
2019-01-17T08:30:36.886Z,18.87
2019-01-17T08:31:36.503Z,18.88
2019-01-17T08:32:36.565Z,18.9
2019-01-17T08:33:36.863Z,18.87
2019-01-17T08:34:36.498Z,18.88
2019-01-17T08:35:37.213Z,18.9
2019-01-17T08:36:36.897Z,18.9
2019-01-17T08:37:37.563Z,18.88
2019-01-17T08:38:36.890Z,18.92
2019-01-17T08:39:36.833Z,18.91
2019-01-17T08:40:36.454Z,18.94
2019-01-17T08:41:36.829Z,18.94
2019-01-17T08:42:37.287Z,18.9
2019-01-17T08:43:37.030Z,18.92
2019-01-17T08:44:37.394Z,18.92
2019-01-17T08:45:37.447Z,18.92
2019-01-17T08:46:37.245Z,18.91
2019-01-17T08:47:37.152Z,18.92
2019-01-17T08:48:36.500Z,18.94
2019-01-17T08:49:36.857Z,18.92
2019-01-17T08:50:36.970Z,18.97
2019-01-17T08:51:36.393Z,18.94
2019-01-17T08:52:37.325Z,18.95
2019-01-17T08:53:36.987Z,18.95
2019-01-17T08:54:36.807Z,18.97
2019-01-17T08:55:37.155Z,18.97
2019-01-17T08:56:36.871Z,18.95
2019-01-17T08:57:36.747Z,18.98
2019-01-17T08:58:38.473Z,18.97
2019-01-17T08:59:36.875Z,18.98
2019-01-17T09:00:36.420Z,18.97
2019-01-17T09:01:37.136Z,18.97
2019-01-17T09:02:37.107Z,18.97
2019-01-17T09:03:36.550Z,18.94
2019-01-17T09:04:36.524Z,18.98
2019-01-17T09:05:36.742Z,18.95
2019-01-17T09:06:36.916Z,18.97
2019-01-17T09:07:36.503Z,18.98
2019-01-17T09:08:36.475Z,18.99
2019-01-17T09:09:36.877Z,19.01
2019-01-17T09:10:36.863Z,19.01
2019-01-17T09:11:36.630Z,18.99
2019-01-17T09:12:36.592Z,19.03
2019-01-17T09:13:36.981Z,19.01
2019-01-17T09:14:37.071Z,19.03
2019-01-17T09:15:36.475Z,19.05
2019-01-17T09:16:36.565Z,19.08
2019-01-17T09:17:36.845Z,19.03
2019-01-17T09:18:36.600Z,19.05
2019-01-17T09:19:36.664Z,19.06
2019-01-17T09:20:36.584Z,19.08
2019-01-17T09:21:36.502Z,19.09
2019-01-17T09:22:37.238Z,19.11
2019-01-17T09:23:36.576Z,19.13
2019-01-17T09:24:36.593Z,19.15
2019-01-17T09:25:36.926Z,19.12
2019-01-17T09:26:36.890Z,19.18
2019-01-17T09:27:36.925Z,19.15
2019-01-17T09:28:38.602Z,19.18
2019-01-17T09:29:36.886Z,19.19
2019-01-17T09:30:36.838Z,19.2
2019-01-17T09:31:36.456Z,19.23
2019-01-17T09:32:38.422Z,19.26
2019-01-17T09:33:36.781Z,19.27
2019-01-17T09:34:36.891Z,19.27
2019-01-17T09:35:36.889Z,19.32
2019-01-17T09:36:37.150Z,19.3
2019-01-17T09:37:36.880Z,19.33
2019-01-17T09:38:36.924Z,19.36
2019-01-17T09:39:37.874Z,19.35
2019-01-17T09:40:36.828Z,19.37
2019-01-17T09:41:36.612Z,19.35
2019-01-17T09:42:37.601Z,19.4
2019-01-17T09:43:36.941Z,19.37
2019-01-17T09:44:37.154Z,19.37
2019-01-17T09:45:37.761Z,19.37
2019-01-17T09:46:36.421Z,19.39
2019-01-17T09:47:37.161Z,19.4
2019-01-17T09:48:36.366Z,19.4
2019-01-17T09:49:36.867Z,19.37
2019-01-17T09:50:37.073Z,19.39
2019-01-17T09:51:36.943Z,19.4
2019-01-17T09:52:37.048Z,19.39
2019-01-17T09:53:36.841Z,19.43
2019-01-17T09:54:36.523Z,19.42
2019-01-17T09:55:36.932Z,19.42
2019-01-17T09:56:36.370Z,19.42
2019-01-17T09:57:36.840Z,19.42
2019-01-17T09:58:37.054Z,19.47
2019-01-17T09:59:36.416Z,19.46
2019-01-17T10:00:36.969Z,19.46
2019-01-17T10:01:36.666Z,19.49
2019-01-17T10:02:36.800Z,19.49
2019-01-17T10:03:36.809Z,19.49
2019-01-17T10:04:36.747Z,19.47
2019-01-17T10:05:36.592Z,19.45
2019-01-17T10:06:38.513Z,19.47
2019-01-17T10:07:36.391Z,19.47
2019-01-17T10:08:36.761Z,19.46
2019-01-17T10:09:36.814Z,19.46
2019-01-17T10:10:36.782Z,19.49
2019-01-17T10:11:36.878Z,19.52
2019-01-17T10:12:36.450Z,19.49
2019-01-17T10:13:36.480Z,19.5
2019-01-17T10:14:36.779Z,19.49
2019-01-17T10:15:36.503Z,19.53
2019-01-17T10:16:37.162Z,19.53
2019-01-17T10:17:36.825Z,19.56
2019-01-17T10:18:36.762Z,19.57
2019-01-17T10:19:36.719Z,19.56
2019-01-17T10:20:36.788Z,19.56
2019-01-17T10:21:36.527Z,19.58
2019-01-17T10:22:36.788Z,19.6
2019-01-17T10:23:36.649Z,19.61
2019-01-17T10:24:36.819Z,19.63
2019-01-17T10:25:36.922Z,19.6
2019-01-17T10:26:36.820Z,19.57
2019-01-17T10:27:36.862Z,19.54
2019-01-17T10:28:37.030Z,19.53
2019-01-17T10:29:36.847Z,19.57
2019-01-17T10:30:36.944Z,19.53
2019-01-17T10:31:37.071Z,19.56
2019-01-17T10:32:36.734Z,19.53
2019-01-17T10:33:38.446Z,19.54
2019-01-17T10:34:36.945Z,19.56
2019-01-17T10:35:36.549Z,19.53
2019-01-17T10:36:36.493Z,19.54
2019-01-17T10:37:36.598Z,19.52
2019-01-17T10:38:37.051Z,19.56
2019-01-17T10:39:36.918Z,19.5
2019-01-17T10:40:36.549Z,19.53
2019-01-17T10:41:36.926Z,19.54
2019-01-17T10:42:37.123Z,19.54
2019-01-17T10:43:37.881Z,19.54
2019-01-17T10:44:38.403Z,19.53
2019-01-17T10:45:37.448Z,19.53
2019-01-17T10:46:36.512Z,19.54
2019-01-17T10:47:37.055Z,19.56
2019-01-17T10:48:36.870Z,19.57
2019-01-17T10:49:36.570Z,19.54
2019-01-17T10:50:36.563Z,19.57
2019-01-17T10:51:36.993Z,19.56
2019-01-17T10:52:36.574Z,19.54
2019-01-17T10:53:36.971Z,19.57
2019-01-17T10:54:36.787Z,19.56
2019-01-17T10:55:36.714Z,19.58
2019-01-17T10:56:41.926Z,19.56
2019-01-17T10:57:37.352Z,19.57
2019-01-17T10:58:36.455Z,19.57
2019-01-17T10:59:37.045Z,19.57
2019-01-17T11:00:36.832Z,19.57
2019-01-17T11:01:36.585Z,19.54
2019-01-17T11:02:36.327Z,19.57
2019-01-17T11:03:36.691Z,19.58
2019-01-17T11:04:36.891Z,19.58
2019-01-17T11:05:36.727Z,19.57
2019-01-17T11:06:36.587Z,19.57
2019-01-17T11:07:36.625Z,19.57
2019-01-17T11:08:37.015Z,19.6
2019-01-17T11:09:36.535Z,19.57
2019-01-17T11:10:36.419Z,19.58
2019-01-17T11:11:36.788Z,19.57
2019-01-17T11:12:36.884Z,19.58
2019-01-17T11:13:38.385Z,19.57
2019-01-17T11:14:36.705Z,19.6
2019-01-17T11:15:36.521Z,19.58
2019-01-17T11:16:36.536Z,19.58
2019-01-17T11:17:36.928Z,19.58
2019-01-17T11:18:36.701Z,19.57
2019-01-17T11:19:36.381Z,19.6
2019-01-17T11:20:36.883Z,19.6
2019-01-17T11:21:37.232Z,19.63
2019-01-17T11:22:36.995Z,19.57
2019-01-17T11:23:36.824Z,19.6
2019-01-17T11:24:36.583Z,19.61
2019-01-17T11:25:36.469Z,19.6
2019-01-17T11:26:36.681Z,19.6
2019-01-17T11:27:36.474Z,19.65
2019-01-17T11:28:36.814Z,19.61
2019-01-17T11:29:37.460Z,19.6
2019-01-17T11:30:36.757Z,19.64
2019-01-17T11:31:36.684Z,19.61
2019-01-17T11:32:36.314Z,19.6
2019-01-17T11:33:36.695Z,19.64
2019-01-17T11:34:36.781Z,19.6
2019-01-17T11:35:36.537Z,19.61
2019-01-17T11:36:36.373Z,19.65
2019-01-17T11:37:37.123Z,19.61
2019-01-17T11:38:36.562Z,19.63
2019-01-17T11:39:36.913Z,19.64
2019-01-17T11:40:36.935Z,19.64
2019-01-17T11:41:36.789Z,19.6
2019-01-17T11:42:37.000Z,19.63
2019-01-17T11:43:36.834Z,19.64
2019-01-17T11:44:36.333Z,19.64
2019-01-17T11:45:36.616Z,19.67
2019-01-17T11:46:36.884Z,19.68
2019-01-17T11:47:36.394Z,19.67
2019-01-17T11:48:37.161Z,19.68
2019-01-17T11:49:36.405Z,19.7
2019-01-17T11:50:36.907Z,19.71
2019-01-17T11:51:36.494Z,19.74
2019-01-17T11:52:36.368Z,19.73
2019-01-17T11:53:36.490Z,19.74
2019-01-17T11:54:36.944Z,19.78
2019-01-17T11:55:36.509Z,19.75
2019-01-17T11:56:41.377Z,19.78
2019-01-17T11:57:36.839Z,19.78
2019-01-17T11:58:36.357Z,19.81
2019-01-17T11:59:36.526Z,19.8
2019-01-17T12:00:37.130Z,19.82
2019-01-17T12:01:36.307Z,19.82
2019-01-17T12:02:39.948Z,19.84
2019-01-17T12:03:36.927Z,19.86
2019-01-17T12:04:36.379Z,19.86
2019-01-17T12:05:36.965Z,19.88
2019-01-17T12:06:36.825Z,19.89
2019-01-17T12:07:36.351Z,19.89
2019-01-17T12:08:36.816Z,19.92
2019-01-17T12:09:38.405Z,19.91
2019-01-17T12:10:36.558Z,19.92
2019-01-17T12:11:36.534Z,19.91
2019-01-17T12:12:36.564Z,19.86
2019-01-17T12:13:36.735Z,19.86
2019-01-17T12:14:36.906Z,19.89
2019-01-17T12:15:36.422Z,19.89
2019-01-17T12:16:36.856Z,19.91
2019-01-17T12:17:36.850Z,19.92
2019-01-17T12:18:36.917Z,19.93
2019-01-17T12:19:36.575Z,19.93
2019-01-17T12:20:37.195Z,19.95
2019-01-17T12:21:37.158Z,19.96
2019-01-17T12:22:36.955Z,19.96
2019-01-17T12:23:36.355Z,19.93
2019-01-17T12:24:37.156Z,19.93
2019-01-17T12:25:36.739Z,19.91
2019-01-17T12:26:36.430Z,19.91
2019-01-17T12:27:42.957Z,19.91
2019-01-17T12:28:36.679Z,19.92
2019-01-17T12:29:36.547Z,19.92
2019-01-17T12:30:36.708Z,19.91
2019-01-17T12:31:36.609Z,19.91
2019-01-17T12:32:36.903Z,19.89
2019-01-17T12:33:36.514Z,19.91
2019-01-17T12:34:36.651Z,19.91
2019-01-17T12:35:36.712Z,19.92
2019-01-17T12:36:36.479Z,19.91
2019-01-17T12:37:36.510Z,19.91
2019-01-17T12:38:36.357Z,19.91
2019-01-17T12:39:36.402Z,19.93
2019-01-17T12:40:37.166Z,19.93
2019-01-17T12:41:36.475Z,19.93
2019-01-17T12:42:36.707Z,19.95
2019-01-17T12:43:36.693Z,19.98
2019-01-17T12:44:36.859Z,19.95
2019-01-17T12:45:37.013Z,19.96
2019-01-17T12:46:36.763Z,19.98
2019-01-17T12:47:36.492Z,19.99
2019-01-17T12:48:36.789Z,19.99
2019-01-17T12:49:36.450Z,19.99
2019-01-17T12:50:36.626Z,19.96
2019-01-17T12:51:36.825Z,19.96
2019-01-17T12:52:37.147Z,19.96
2019-01-17T12:53:36.610Z,19.96
2019-01-17T12:54:36.235Z,19.96
2019-01-17T12:55:37.391Z,19.96